createdAt,value
2023-01-23T00:00:10.370Z,86.74
2023-01-23T00:02:10.365Z,86.74
2023-01-23T00:03:10.338Z,86.74
2023-01-23T00:04:10.674Z,86.74
2023-01-23T00:05:10.412Z,86.64
2023-01-23T00:06:10.744Z,86.74
2023-01-23T00:07:10.448Z,86.83
2023-01-23T00:08:10.486Z,86.74
2023-01-23T00:09:10.668Z,86.74
2023-01-23T00:10:10.532Z,87.21
2023-01-23T00:11:10.555Z,86.83
2023-01-23T00:12:10.596Z,86.93
2023-01-23T00:13:10.962Z,86.83
2023-01-23T00:14:10.662Z,86.83
2023-01-23T00:15:10.666Z,86.74
2023-01-23T00:16:10.967Z,86.74
2023-01-23T00:17:10.873Z,86.64
2023-01-23T00:18:10.791Z,86.83
2023-01-23T00:19:11.123Z,86.74
2023-01-23T00:20:11.097Z,86.64
2023-01-23T00:21:10.884Z,86.64
2023-01-23T00:22:13.506Z,86.64
2023-01-23T00:23:10.929Z,87.21
2023-01-23T00:24:10.992Z,86.93
2023-01-23T00:25:10.942Z,86.93
2023-01-23T00:26:11.264Z,86.93
2023-01-23T00:27:11.000Z,86.74
2023-01-23T00:28:11.015Z,86.83
2023-01-23T00:29:11.058Z,86.74
2023-01-23T00:30:11.146Z,86.93
2023-01-23T00:31:11.208Z,86.93
2023-01-23T00:32:11.543Z,87.41
2023-01-23T00:34:11.198Z,87.12
2023-01-23T00:35:11.229Z,87.41
2023-01-23T00:36:11.280Z,87.21
2023-01-23T00:37:11.255Z,87.21
2023-01-23T00:38:11.697Z,87.21
2023-01-23T00:39:11.312Z,87.31
2023-01-23T00:40:11.340Z,87.31
2023-01-23T00:41:11.378Z,87.31
2023-01-23T00:42:11.398Z,87.12
2023-01-23T00:43:11.422Z,87.12
2023-01-23T00:44:11.466Z,87.12
2023-01-23T00:45:11.780Z,87.60
2023-01-23T00:46:11.517Z,87.60
2023-01-23T00:48:11.678Z,87.50
2023-01-23T00:50:11.611Z,87.88
2023-01-23T00:51:11.695Z,87.79
2023-01-23T00:52:11.964Z,87.79
2023-01-23T00:53:11.691Z,87.79
2023-01-23T00:54:11.738Z,87.79
2023-01-23T00:55:11.745Z,87.60
2023-01-23T00:56:11.806Z,87.70
2023-01-23T00:57:11.798Z,87.79
2023-01-23T00:58:11.914Z,87.50
2023-01-23T00:59:12.178Z,87.70
2023-01-23T01:00:11.883Z,87.60
2023-01-23T01:01:11.912Z,87.31
2023-01-23T01:02:11.947Z,87.70
2023-01-23T01:03:12.058Z,87.79
2023-01-23T01:04:12.115Z,87.98
2023-01-23T01:05:12.015Z,87.98
2023-01-23T01:06:12.362Z,87.98
2023-01-23T01:07:12.069Z,87.88
2023-01-23T01:08:12.096Z,87.70
2023-01-23T01:10:12.170Z,88.37
2023-01-23T01:11:12.179Z,87.88
2023-01-23T01:12:12.206Z,88.37
2023-01-23T01:13:12.532Z,88.27
2023-01-23T01:14:12.265Z,88.27
2023-01-23T01:15:12.285Z,88.17
2023-01-23T01:16:12.355Z,88.46
2023-01-23T01:17:12.339Z,88.46
2023-01-23T01:18:12.369Z,88.27
2023-01-23T01:19:12.387Z,88.65
2023-01-23T01:20:12.861Z,88.27
2023-01-23T01:21:12.477Z,88.75
2023-01-23T01:23:12.504Z,88.17
2023-01-23T01:24:12.543Z,88.37
2023-01-23T01:25:12.561Z,88.56
2023-01-23T01:26:12.586Z,88.37
2023-01-23T01:28:12.959Z,88.46
2023-01-23T01:29:12.704Z,88.65
2023-01-23T01:30:12.694Z,88.75
2023-01-23T01:31:12.804Z,88.94
2023-01-23T01:32:12.761Z,88.94
2023-01-23T01:33:12.776Z,89.13
2023-01-23T01:34:12.798Z,89.04
2023-01-23T01:35:13.130Z,88.94
2023-01-23T01:36:12.975Z,88.75
2023-01-23T01:37:12.884Z,89.04
2023-01-23T01:38:12.909Z,89.04
2023-01-23T01:39:12.939Z,89.13
2023-01-23T01:40:12.964Z,89.04
2023-01-23T01:41:12.984Z,89.04
2023-01-23T01:42:13.327Z,89.04
2023-01-23T01:43:13.040Z,89.13
2023-01-23T01:44:13.072Z,89.04
2023-01-23T01:45:13.104Z,89.13
2023-01-23T01:46:13.191Z,89.04
2023-01-23T01:47:13.153Z,89.13
2023-01-23T01:48:13.190Z,89.13
2023-01-23T01:49:13.503Z,89.13
2023-01-23T01:50:13.240Z,89.13
2023-01-23T01:51:13.285Z,89.23
2023-01-23T01:52:13.420Z,89.23
2023-01-23T01:53:13.309Z,89.13
2023-01-23T01:54:13.338Z,89.32
2023-01-23T01:55:13.374Z,89.32
2023-01-23T01:56:13.698Z,89.32
2023-01-23T01:57:13.420Z,89.13
2023-01-23T01:58:13.455Z,89.32
2023-01-23T01:59:13.472Z,89.13
2023-01-23T02:00:13.503Z,89.32
2023-01-23T02:01:13.532Z,89.23
2023-01-23T02:02:13.686Z,89.13
2023-01-23T02:03:13.886Z,89.13
2023-01-23T02:04:13.610Z,89.32
2023-01-23T02:05:13.659Z,89.04
2023-01-23T02:06:13.677Z,89.71
2023-01-23T02:07:13.692Z,89.61
2023-01-23T02:08:13.845Z,89.23
2023-01-23T02:09:13.749Z,89.32
2023-01-23T02:10:14.088Z,89.61
2023-01-23T02:11:13.808Z,89.61
2023-01-23T02:12:13.831Z,89.61
2023-01-23T02:13:13.864Z,89.61
2023-01-23T02:14:13.894Z,89.61
2023-01-23T02:15:13.928Z,89.42
2023-01-23T02:16:14.010Z,89.71
2023-01-23T02:17:14.286Z,89.32
2023-01-23T02:18:14.004Z,89.32
2023-01-23T02:19:14.022Z,89.61
2023-01-23T02:20:14.046Z,89.61
2023-01-23T02:21:14.073Z,89.51
2023-01-23T02:22:14.105Z,89.61
2023-01-23T02:23:14.125Z,89.13
2023-01-23T02:24:14.567Z,89.04
2023-01-23T02:25:14.193Z,89.04
2023-01-23T02:26:14.205Z,89.04
2023-01-23T02:27:14.240Z,89.04
2023-01-23T02:28:14.273Z,89.04
2023-01-23T02:29:14.294Z,89.04
2023-01-23T02:30:14.321Z,89.04
2023-01-23T02:31:14.786Z,89.04
2023-01-23T02:32:14.372Z,89.04
2023-01-23T02:33:14.413Z,88.94
2023-01-23T02:34:14.440Z,88.94
2023-01-23T02:35:14.469Z,89.04
2023-01-23T02:36:14.488Z,88.94
2023-01-23T02:37:14.573Z,89.04
2023-01-23T02:38:14.887Z,89.04
2023-01-23T02:39:14.571Z,89.04
2023-01-23T02:40:14.714Z,89.04
2023-01-23T02:41:14.613Z,88.94
2023-01-23T02:42:14.650Z,88.94
2023-01-23T02:43:14.670Z,89.80
2023-01-23T02:44:14.710Z,89.61
2023-01-23T02:45:15.095Z,89.51
2023-01-23T02:46:14.753Z,89.51
2023-01-23T02:47:14.779Z,89.61
2023-01-23T02:48:14.808Z,89.42
2023-01-23T02:49:14.841Z,89.42
2023-01-23T02:50:14.871Z,89.51
2023-01-23T02:51:15.209Z,89.51
2023-01-23T02:52:14.917Z,90.00
2023-01-23T02:53:14.940Z,89.61
2023-01-23T02:54:14.967Z,89.51
2023-01-23T02:55:14.994Z,89.51
2023-01-23T02:56:15.139Z,89.42
2023-01-23T02:57:15.351Z,89.51
2023-01-23T02:58:15.080Z,89.51
2023-01-23T02:59:15.103Z,89.51
2023-01-23T03:00:15.129Z,89.71
2023-01-23T03:01:15.195Z,89.51
2023-01-23T03:02:15.231Z,89.61
2023-01-23T03:03:15.517Z,89.61
2023-01-23T03:04:15.251Z,89.71
2023-01-23T03:05:15.337Z,89.80
2023-01-23T03:06:15.293Z,89.42
2023-01-23T03:07:15.373Z,89.32
2023-01-23T03:08:15.367Z,89.32
2023-01-23T03:09:15.383Z,89.23
2023-01-23T03:10:15.718Z,89.61
2023-01-23T03:11:15.433Z,89.51
2023-01-23T03:12:15.580Z,89.42
2023-01-23T03:13:15.482Z,89.42
2023-01-23T03:14:15.508Z,89.42
2023-01-23T03:15:15.542Z,88.94
2023-01-23T03:16:15.621Z,89.61
2023-01-23T03:17:15.890Z,89.04
2023-01-23T03:18:15.621Z,89.23
2023-01-23T03:19:15.643Z,89.04
2023-01-23T03:21:15.703Z,89.42
2023-01-23T03:22:15.731Z,89.61
2023-01-23T03:23:15.755Z,89.61
2023-01-23T03:24:16.087Z,89.18
2023-01-23T03:25:15.833Z,89.47
2023-01-23T03:26:15.839Z,89.28
2023-01-23T03:27:15.863Z,89.42
2023-01-23T03:28:16.006Z,89.80
2023-01-23T03:29:15.932Z,89.80
2023-01-23T03:30:16.077Z,89.61
2023-01-23T03:31:16.316Z,89.66
2023-01-23T03:32:16.017Z,89.57
2023-01-23T03:33:16.029Z,89.47
2023-01-23T03:34:16.089Z,89.61
2023-01-23T03:35:16.087Z,89.47
2023-01-23T03:36:16.114Z,89.57
2023-01-23T03:37:16.133Z,89.51
2023-01-23T03:38:16.463Z,89.32
2023-01-23T03:40:16.226Z,89.51
2023-01-23T03:41:16.258Z,89.57
2023-01-23T03:42:16.574Z,89.37
2023-01-23T03:43:16.315Z,89.57
2023-01-23T03:44:16.453Z,89.57
2023-01-23T03:45:16.662Z,89.57
2023-01-23T03:46:16.383Z,89.57
2023-01-23T03:47:16.505Z,89.66
2023-01-23T03:48:16.439Z,89.37
2023-01-23T03:49:16.460Z,89.28
2023-01-23T03:50:16.499Z,89.37
2023-01-23T03:51:16.535Z,89.47
2023-01-23T03:52:16.840Z,89.57
2023-01-23T03:53:16.573Z,89.86
2023-01-23T03:54:16.596Z,89.95
2023-01-23T03:55:16.620Z,89.76
2023-01-23T03:56:16.660Z,89.76
2023-01-23T03:57:16.681Z,90.43
2023-01-23T03:58:16.708Z,90.53
2023-01-23T03:59:17.041Z,90.33
2023-01-23T04:00:17.181Z,90.33
2023-01-23T04:01:16.888Z,90.33
2023-01-23T04:02:16.821Z,90.23
2023-01-23T04:03:16.839Z,90.23
2023-01-23T04:04:16.875Z,90.43
2023-01-23T04:05:16.892Z,90.43
2023-01-23T04:07:17.255Z,90.14
2023-01-23T04:08:16.971Z,90.33
2023-01-23T04:09:17.003Z,90.23
2023-01-23T04:10:17.183Z,90.43
2023-01-23T04:11:17.053Z,90.43
2023-01-23T04:12:17.076Z,90.05
2023-01-23T04:13:17.106Z,90.43
2023-01-23T04:14:17.436Z,90.81
2023-01-23T04:16:17.377Z,90.81
2023-01-23T04:17:17.223Z,90.62
2023-01-23T04:18:17.247Z,90.62
2023-01-23T04:19:17.268Z,90.72
2023-01-23T04:20:17.501Z,90.33
2023-01-23T04:21:17.622Z,90.62
2023-01-23T04:22:17.354Z,90.53
2023-01-23T04:23:17.377Z,90.72
2023-01-23T04:24:17.423Z,90.72
2023-01-23T04:26:17.465Z,90.81
2023-01-23T04:27:17.596Z,90.05
2023-01-23T04:28:17.815Z,90.14
2023-01-23T04:29:17.542Z,91.00
2023-01-23T04:30:17.687Z,90.81
2023-01-23T04:31:17.738Z,90.72
2023-01-23T04:32:17.733Z,90.91
2023-01-23T04:33:17.657Z,90.72
2023-01-23T04:34:17.673Z,90.62
2023-01-23T04:35:18.068Z,90.43
2023-01-23T04:36:17.728Z,90.72
2023-01-23T04:37:17.756Z,90.43
2023-01-23T04:38:17.780Z,90.81
2023-01-23T04:39:17.813Z,90.91
2023-01-23T04:40:18.083Z,90.53
2023-01-23T04:41:17.879Z,90.81
2023-01-23T04:42:18.191Z,90.53
2023-01-23T04:43:17.916Z,90.72
2023-01-23T04:44:17.944Z,90.72
2023-01-23T04:45:17.986Z,90.81
2023-01-23T04:46:18.054Z,90.72
2023-01-23T04:47:18.029Z,90.62
2023-01-23T04:48:18.169Z,90.81
2023-01-23T04:49:18.385Z,90.81
2023-01-23T04:50:18.370Z,90.62
2023-01-23T04:51:18.190Z,90.62
2023-01-23T04:52:18.159Z,90.72
2023-01-23T04:53:18.200Z,90.62
2023-01-23T04:54:18.315Z,90.43
2023-01-23T04:55:18.246Z,90.62
2023-01-23T04:56:18.570Z,90.62
2023-01-23T04:57:18.312Z,90.62
2023-01-23T04:58:18.322Z,90.05
2023-01-23T04:59:18.385Z,90.43
2023-01-23T05:00:18.720Z,90.33
2023-01-23T05:01:18.464Z,90.05
2023-01-23T05:02:18.593Z,90.33
2023-01-23T05:03:18.767Z,90.81
2023-01-23T05:04:18.595Z,90.62
2023-01-23T05:05:18.514Z,90.05
2023-01-23T05:06:18.540Z,90.62
2023-01-23T05:07:18.566Z,90.53
2023-01-23T05:08:18.599Z,90.81
2023-01-23T05:09:18.627Z,90.91
2023-01-23T05:10:19.454Z,90.81
2023-01-23T05:11:18.677Z,90.62
2023-01-23T05:15:18.799Z,90.81
2023-01-23T05:16:19.110Z,90.72
2023-01-23T05:17:18.845Z,90.62
2023-01-23T05:18:18.878Z,90.62
2023-01-23T05:19:18.893Z,90.72
2023-01-23T05:20:19.353Z,90.72
2023-01-23T05:21:18.943Z,90.91
2023-01-23T05:22:19.275Z,91.10
2023-01-23T05:23:19.015Z,90.91
2023-01-23T05:24:19.033Z,91.29
2023-01-23T05:25:19.053Z,91.49
2023-01-23T05:26:19.082Z,91.39
2023-01-23T05:27:19.327Z,91.10
2023-01-23T05:28:19.491Z,91.67
2023-01-23T05:29:19.168Z,91.19
2023-01-23T05:31:19.340Z,91.58
2023-01-23T05:32:19.235Z,91.77
2023-01-23T05:33:19.277Z,91.00
2023-01-23T05:34:19.296Z,91.00
2023-01-23T05:35:19.625Z,91.29
2023-01-23T05:36:19.463Z,91.39
2023-01-23T05:37:19.392Z,91.10
2023-01-23T05:38:19.406Z,91.29
2023-01-23T05:39:19.454Z,90.81
2023-01-23T05:40:19.793Z,91.19
2023-01-23T05:41:19.484Z,91.29
2023-01-23T05:42:19.808Z,91.10
2023-01-23T05:43:19.615Z,90.91
2023-01-23T05:44:19.736Z,90.91
2023-01-23T05:45:19.649Z,90.53
2023-01-23T05:46:19.658Z,90.81
2023-01-23T05:47:19.643Z,90.05
2023-01-23T05:48:19.676Z,89.95
2023-01-23T05:49:20.021Z,90.33
2023-01-23T05:50:19.973Z,90.53
2023-01-23T05:51:19.823Z,90.62
2023-01-23T05:52:19.911Z,90.43
2023-01-23T05:53:19.814Z,90.43
2023-01-23T05:54:19.835Z,90.62
2023-01-23T05:55:19.861Z,90.72
2023-01-23T05:56:20.191Z,90.53
2023-01-23T05:57:19.927Z,90.72
2023-01-23T05:58:19.947Z,89.76
2023-01-23T05:59:19.968Z,90.23
2023-01-23T06:00:20.354Z,89.86
2023-01-23T06:02:20.095Z,90.43
2023-01-23T06:03:20.431Z,90.23
2023-01-23T06:06:20.156Z,90.33
2023-01-23T06:07:20.194Z,90.53
2023-01-23T06:08:20.335Z,90.05
2023-01-23T06:09:20.241Z,89.95
2023-01-23T06:10:20.897Z,90.23
2023-01-23T06:11:20.293Z,89.95
2023-01-23T06:13:20.360Z,89.76
2023-01-23T06:14:20.381Z,89.95
2023-01-23T06:15:20.396Z,89.47
2023-01-23T06:16:20.493Z,89.28
2023-01-23T06:17:20.754Z,89.86
2023-01-23T06:18:20.485Z,90.05
2023-01-23T06:19:20.522Z,90.14
2023-01-23T06:20:20.826Z,89.95
2023-01-23T06:21:20.562Z,89.18
2023-01-23T06:22:20.604Z,89.66
2023-01-23T06:23:20.674Z,89.95
2023-01-23T06:24:21.059Z,90.05
2023-01-23T06:25:21.083Z,89.76
2023-01-23T06:26:20.973Z,89.76
2023-01-23T06:27:20.737Z,89.86
2023-01-23T06:28:20.773Z,89.37
2023-01-23T06:29:20.781Z,89.47
2023-01-23T06:30:21.128Z,89.57
2023-01-23T06:31:21.291Z,89.57
2023-01-23T06:32:20.869Z,89.57
2023-01-23T06:33:20.936Z,89.66
2023-01-23T06:34:20.929Z,89.57
2023-01-23T06:35:21.357Z,89.66
2023-01-23T06:36:20.970Z,89.47
2023-01-23T06:37:21.001Z,89.95
2023-01-23T06:38:21.323Z,89.95
2023-01-23T06:39:21.054Z,90.14
2023-01-23T06:40:21.561Z,90.23
2023-01-23T06:41:21.118Z,89.86
2023-01-23T06:42:21.137Z,89.95
2023-01-23T06:43:21.156Z,90.23
2023-01-23T06:44:21.185Z,90.14
2023-01-23T06:45:21.947Z,89.95
2023-01-23T06:46:21.283Z,89.86
2023-01-23T06:47:21.270Z,89.95
2023-01-23T06:48:21.294Z,89.66
2023-01-23T06:49:21.359Z,89.76
2023-01-23T06:50:21.685Z,90.23
2023-01-23T06:51:21.400Z,90.43
2023-01-23T06:52:21.396Z,90.43
2023-01-23T06:53:21.423Z,89.95
2023-01-23T06:54:21.459Z,90.14
2023-01-23T06:55:21.476Z,90.14
2023-01-23T06:56:21.631Z,89.76
2023-01-23T06:57:21.533Z,90.05
2023-01-23T06:58:21.881Z,89.86
2023-01-23T06:59:21.596Z,89.76
2023-01-23T07:00:21.881Z,89.66
2023-01-23T07:01:21.740Z,89.76
2023-01-23T07:02:21.668Z,89.95
2023-01-23T07:03:21.700Z,89.86
2023-01-23T07:04:21.719Z,89.37
2023-01-23T07:05:21.747Z,89.95
2023-01-23T07:06:21.777Z,90.05
2023-01-23T07:07:21.808Z,89.86
2023-01-23T07:08:21.836Z,89.76
2023-01-23T07:09:21.889Z,89.76
2023-01-23T07:10:22.491Z,90.05
2023-01-23T07:11:21.911Z,89.95
2023-01-23T07:12:22.060Z,89.95
2023-01-23T07:13:21.967Z,90.14
2023-01-23T07:14:22.000Z,90.14
2023-01-23T07:15:22.017Z,89.86
2023-01-23T07:16:22.166Z,89.76
2023-01-23T07:17:22.074Z,89.76
2023-01-23T07:18:22.106Z,89.57
2023-01-23T07:19:22.137Z,89.76
2023-01-23T07:20:22.689Z,89.76
2023-01-23T07:21:22.177Z,89.95
2023-01-23T07:22:22.223Z,89.18
2023-01-23T07:23:22.233Z,89.57
2023-01-23T07:24:22.280Z,89.37
2023-01-23T07:25:22.290Z,89.28
2023-01-23T07:26:22.311Z,89.28
2023-01-23T07:27:22.333Z,89.37
2023-01-23T07:28:22.500Z,89.37
2023-01-23T07:29:22.387Z,89.28
2023-01-23T07:30:22.803Z,89.47
2023-01-23T07:31:22.622Z,89.47
2023-01-23T07:32:22.485Z,89.57
2023-01-23T07:33:22.492Z,89.57
2023-01-23T07:34:22.892Z,89.66
2023-01-23T07:35:22.559Z,89.76
2023-01-23T07:36:22.580Z,89.76
2023-01-23T07:37:22.608Z,89.57
2023-01-23T07:38:22.684Z,89.57
2023-01-23T07:39:22.657Z,89.76
2023-01-23T07:40:23.315Z,89.28
2023-01-23T07:41:22.718Z,89.57
2023-01-23T07:42:22.849Z,89.76
2023-01-23T07:43:22.771Z,89.66
2023-01-23T07:44:22.906Z,89.47
2023-01-23T07:45:22.916Z,89.09
2023-01-23T07:46:23.161Z,88.99
2023-01-23T07:47:22.883Z,88.99
2023-01-23T07:48:23.002Z,89.18
2023-01-23T07:50:23.153Z,88.90
2023-01-23T07:51:23.051Z,88.90
2023-01-23T07:52:23.010Z,89.09
2023-01-23T07:53:23.386Z,89.18
2023-01-23T07:54:23.111Z,89.18
2023-01-23T07:55:23.094Z,89.18
2023-01-23T07:56:23.138Z,89.09
2023-01-23T07:57:23.145Z,89.18
2023-01-23T07:58:23.216Z,89.09
2023-01-23T07:59:23.198Z,88.80
2023-01-23T08:00:24.924Z,89.09
2023-01-23T08:01:23.254Z,89.18
2023-01-23T08:02:23.376Z,89.09
2023-01-23T08:03:23.301Z,89.09
2023-01-23T08:04:23.376Z,88.61
2023-01-23T08:05:23.356Z,88.51
2023-01-23T08:06:23.890Z,88.80
2023-01-23T08:08:23.449Z,88.80
2023-01-23T08:09:23.569Z,88.70
2023-01-23T08:10:23.596Z,88.61
2023-01-23T08:11:23.524Z,88.90
2023-01-23T08:12:23.546Z,89.09
2023-01-23T08:13:23.887Z,88.99
2023-01-23T08:14:23.650Z,88.90
2023-01-23T08:15:23.629Z,88.51
2023-01-23T08:16:23.812Z,88.70
2023-01-23T08:17:23.681Z,88.61
2023-01-23T08:20:23.761Z,88.32
2023-01-23T08:22:23.921Z,88.61
2023-01-23T08:23:23.855Z,88.51
2023-01-23T08:24:23.876Z,88.32
2023-01-23T08:25:23.903Z,88.42
2023-01-23T08:26:23.926Z,88.42
2023-01-23T08:27:23.951Z,88.61
2023-01-23T08:28:23.977Z,88.61
2023-01-23T08:29:24.005Z,88.61
2023-01-23T08:30:24.132Z,88.03
2023-01-23T08:32:24.504Z,88.23
2023-01-23T08:33:24.115Z,88.23
2023-01-23T08:34:24.183Z,88.23
2023-01-23T08:35:24.168Z,88.51
2023-01-23T08:36:24.211Z,88.32
2023-01-23T08:37:24.247Z,88.32
2023-01-23T08:38:24.554Z,88.61
2023-01-23T08:39:24.280Z,88.61
2023-01-23T08:40:24.376Z,88.51
2023-01-23T08:41:24.325Z,88.13
2023-01-23T08:42:24.414Z,88.23
2023-01-23T08:43:24.377Z,88.23
2023-01-23T08:44:24.713Z,88.13
2023-01-23T08:45:24.598Z,88.42
2023-01-23T08:46:24.457Z,87.74
2023-01-23T08:47:24.482Z,87.94
2023-01-23T08:48:24.635Z,87.65
2023-01-23T08:49:24.554Z,88.03
2023-01-23T08:50:24.926Z,87.74
2023-01-23T08:51:24.659Z,87.84
2023-01-23T08:52:24.625Z,87.94
2023-01-23T08:53:24.664Z,87.46
2023-01-23T08:54:24.680Z,87.55
2023-01-23T08:55:24.703Z,87.84
2023-01-23T08:56:24.736Z,87.46
2023-01-23T08:57:25.059Z,87.84
2023-01-23T08:58:24.782Z,87.84
2023-01-23T08:59:24.948Z,87.74
2023-01-23T09:00:24.834Z,87.65
2023-01-23T09:01:24.929Z,87.55
2023-01-23T09:02:24.994Z,87.37
2023-01-23T09:03:24.925Z,88.03
2023-01-23T09:04:25.361Z,87.84
2023-01-23T09:05:24.967Z,87.27
2023-01-23T09:06:25.021Z,87.74
2023-01-23T09:07:25.078Z,87.46
2023-01-23T09:08:25.067Z,87.46
2023-01-23T09:09:25.083Z,87.55
2023-01-23T09:10:25.116Z,87.74
2023-01-23T09:11:25.579Z,87.27
2023-01-23T09:12:25.166Z,87.55
2023-01-23T09:13:25.243Z,87.46
2023-01-23T09:14:25.219Z,87.55
2023-01-23T09:15:25.241Z,87.65
2023-01-23T09:16:25.302Z,87.65
2023-01-23T09:17:25.314Z,87.55
2023-01-23T09:18:25.620Z,87.46
2023-01-23T09:19:25.362Z,87.08
2023-01-23T09:20:25.492Z,87.37
2023-01-23T09:21:25.418Z,87.55
2023-01-23T09:22:25.438Z,87.46
2023-01-23T09:23:25.481Z,87.46
2023-01-23T09:24:25.727Z,87.46
2023-01-23T09:25:25.816Z,87.65
2023-01-23T09:26:25.542Z,87.55
2023-01-23T09:27:25.570Z,87.37
2023-01-23T09:28:25.611Z,87.74
2023-01-23T09:29:25.616Z,87.55
2023-01-23T09:30:25.745Z,87.74
2023-01-23T09:31:25.710Z,87.65
2023-01-23T09:32:25.730Z,87.74
2023-01-23T09:33:25.734Z,87.84
2023-01-23T09:34:25.769Z,87.84
2023-01-23T09:35:25.850Z,87.84
2023-01-23T09:36:41.860Z,87.08
2023-01-23T09:37:25.886Z,87.55
2023-01-23T09:38:25.870Z,86.98
2023-01-23T09:39:25.890Z,87.27
2023-01-23T09:40:25.918Z,87.37
2023-01-23T09:41:25.961Z,87.37
2023-01-23T09:42:25.978Z,87.27
2023-01-23T09:43:25.993Z,87.27
2023-01-23T09:44:26.377Z,87.27
2023-01-23T09:45:26.052Z,87.08
2023-01-23T09:46:26.085Z,87.27
2023-01-23T09:47:26.114Z,87.37
2023-01-23T09:48:26.133Z,87.37
2023-01-23T09:49:26.182Z,87.37
2023-01-23T09:50:26.506Z,87.17
2023-01-23T09:51:26.250Z,87.17
2023-01-23T09:52:26.368Z,87.27
2023-01-23T09:53:26.269Z,86.69
2023-01-23T09:54:26.298Z,87.27
2023-01-23T09:55:26.323Z,86.69
2023-01-23T09:56:26.653Z,86.60
2023-01-23T09:57:26.405Z,86.88
2023-01-23T09:58:26.407Z,86.88
2023-01-23T09:59:26.434Z,86.69
2023-01-23T10:00:26.471Z,86.79
2023-01-23T10:01:26.523Z,86.69
2023-01-23T10:02:27.167Z,86.69
2023-01-23T10:03:26.540Z,86.79
2023-01-23T10:04:26.570Z,86.69
2023-01-23T10:05:26.595Z,86.69
2023-01-23T10:06:26.623Z,86.79
2023-01-23T10:07:26.649Z,86.83
2023-01-23T10:08:26.793Z,86.79
2023-01-23T10:09:26.716Z,86.50
2023-01-23T10:10:26.739Z,87.08
2023-01-23T10:11:26.780Z,86.31
2023-01-23T10:12:26.791Z,86.31
2023-01-23T10:13:26.811Z,86.50
2023-01-23T10:14:26.842Z,86.54
2023-01-23T10:15:27.169Z,86.21
2023-01-23T10:16:28.491Z,86.21
2023-01-23T10:17:27.008Z,86.31
2023-01-23T10:18:26.983Z,86.35
2023-01-23T10:19:26.982Z,86.35
2023-01-23T10:20:27.010Z,86.35
2023-01-23T10:21:27.052Z,86.35
2023-01-23T10:22:27.385Z,86.45
2023-01-23T10:23:27.079Z,86.21
2023-01-23T10:25:27.263Z,86.64
2023-01-23T10:26:27.166Z,86.60
2023-01-23T10:27:27.192Z,86.21
2023-01-23T10:28:27.224Z,86.74
2023-01-23T10:29:27.545Z,86.21
2023-01-23T10:30:27.328Z,86.64
2023-01-23T10:31:27.390Z,86.25
2023-01-23T10:32:27.328Z,86.07
2023-01-23T10:33:27.350Z,86.21
2023-01-23T10:34:27.379Z,86.16
2023-01-23T10:35:27.407Z,86.07
2023-01-23T10:36:28.695Z,86.25
2023-01-23T10:37:27.462Z,86.02
2023-01-23T10:38:27.496Z,86.02
2023-01-23T10:39:27.510Z,85.83
2023-01-23T10:40:27.570Z,86.25
2023-01-23T10:41:27.803Z,86.12
2023-01-23T10:42:27.627Z,86.12
2023-01-23T10:44:27.688Z,85.74
2023-01-23T10:45:27.792Z,86.02
2023-01-23T10:46:27.793Z,85.93
2023-01-23T10:47:29.890Z,85.97
2023-01-23T10:48:27.773Z,86.16
2023-01-23T10:49:27.895Z,86.02
2023-01-23T10:50:27.848Z,85.83
2023-01-23T10:52:27.877Z,85.83
2023-01-23T10:53:27.894Z,85.88
2023-01-23T10:54:32.982Z,85.54
2023-01-23T10:55:27.974Z,85.54
2023-01-23T10:57:28.152Z,85.58
2023-01-23T10:58:28.047Z,85.54
2023-01-23T10:59:28.061Z,85.78
2023-01-23T11:00:28.081Z,85.45
2023-01-23T11:02:28.321Z,85.49
2023-01-23T11:04:28.193Z,85.68
2023-01-23T11:05:28.226Z,85.74
2023-01-23T11:06:28.258Z,85.78
2023-01-23T11:07:28.277Z,85.78
2023-01-23T11:08:28.618Z,85.58
2023-01-23T11:09:28.340Z,85.49
2023-01-23T11:10:28.381Z,85.68
2023-01-23T11:11:28.385Z,85.74
2023-01-23T11:12:28.419Z,85.74
2023-01-23T11:13:28.638Z,85.68
2023-01-23T11:14:28.477Z,85.74
2023-01-23T11:15:28.897Z,85.58
2023-01-23T11:16:28.547Z,85.49
2023-01-23T11:17:28.571Z,85.30
2023-01-23T11:18:28.584Z,85.39
2023-01-23T11:19:28.609Z,85.39
2023-01-23T11:20:28.665Z,85.58
2023-01-23T11:21:28.682Z,85.39
2023-01-23T11:22:29.050Z,85.58
2023-01-23T11:23:28.708Z,85.68
2023-01-23T11:24:39.278Z,85.68
2023-01-23T11:25:28.778Z,85.68
2023-01-23T11:26:28.795Z,85.88
2023-01-23T11:27:28.817Z,85.58
2023-01-23T11:28:28.847Z,85.88
2023-01-23T11:29:29.291Z,85.78
2023-01-23T11:30:28.914Z,86.07
2023-01-23T11:31:29.121Z,85.78
2023-01-23T11:32:29.209Z,85.68
2023-01-23T11:33:28.981Z,85.30
2023-01-23T11:34:29.025Z,84.91
2023-01-23T11:35:29.041Z,84.91
2023-01-23T11:37:29.415Z,85.01
2023-01-23T11:38:31.370Z,84.91
2023-01-23T11:39:29.148Z,84.82
2023-01-23T11:40:29.189Z,84.63
2023-01-23T11:41:29.210Z,84.91
2023-01-23T11:42:29.314Z,84.72
2023-01-23T11:43:29.254Z,84.72
2023-01-23T11:44:35.029Z,84.72
2023-01-23T11:45:29.427Z,84.82
2023-01-23T11:46:29.526Z,84.91
2023-01-23T11:47:29.377Z,84.91
2023-01-23T11:48:29.399Z,84.91
2023-01-23T11:49:29.793Z,85.01
2023-01-23T11:50:29.760Z,84.91
2023-01-23T11:51:29.581Z,85.21
2023-01-23T11:52:29.504Z,85.01
2023-01-23T11:53:41.527Z,84.91
2023-01-23T11:54:29.555Z,85.30
2023-01-23T11:55:29.583Z,85.30
2023-01-23T11:56:29.623Z,85.21
2023-01-23T11:57:29.954Z,85.11
2023-01-23T11:58:30.798Z,85.01
2023-01-23T11:59:29.742Z,84.91
2023-01-23T12:00:29.728Z,85.11
2023-01-23T12:01:29.865Z,85.01
2023-01-23T12:03:29.931Z,85.21
2023-01-23T12:04:29.892Z,84.63
2023-01-23T12:05:29.854Z,85.39
2023-01-23T12:06:29.889Z,85.01
2023-01-23T12:07:29.917Z,84.91
2023-01-23T12:08:29.948Z,85.39
2023-01-23T12:09:29.969Z,84.53
2023-01-23T12:10:30.300Z,84.63
2023-01-23T12:11:30.052Z,84.91
2023-01-23T12:13:30.079Z,85.49
2023-01-23T12:14:30.114Z,84.91
2023-01-23T12:15:30.155Z,85.11
2023-01-23T12:16:30.225Z,85.58
2023-01-23T12:17:30.318Z,85.68
2023-01-23T12:18:30.568Z,84.82
2023-01-23T12:19:30.248Z,84.72
2023-01-23T12:20:30.285Z,85.21
2023-01-23T12:22:30.363Z,85.49
2023-01-23T12:23:30.662Z,84.63
2023-01-23T12:25:30.529Z,85.58
2023-01-23T12:26:30.439Z,85.49
2023-01-23T12:27:30.471Z,85.21
2023-01-23T12:28:30.500Z,85.39
2023-01-23T12:29:31.033Z,85.21
2023-01-23T12:30:30.555Z,85.39
2023-01-23T12:31:30.730Z,85.30
2023-01-23T12:32:30.601Z,85.39
2023-01-23T12:33:30.746Z,85.39
2023-01-23T12:34:30.664Z,85.49
2023-01-23T12:36:31.015Z,85.39
2023-01-23T12:37:31.218Z,85.49
2023-01-23T12:38:30.768Z,85.21
2023-01-23T12:39:30.794Z,84.91
2023-01-23T12:41:30.858Z,85.49
2023-01-23T12:42:31.183Z,85.39
2023-01-23T12:43:30.917Z,84.91
2023-01-23T12:44:30.968Z,85.21
2023-01-23T12:45:30.988Z,85.49
2023-01-23T12:46:31.049Z,85.49
2023-01-23T12:47:31.011Z,85.30
2023-01-23T12:48:31.046Z,85.49
2023-01-23T12:49:31.483Z,85.39
2023-01-23T12:50:31.110Z,85.11
2023-01-23T12:51:31.206Z,85.39
2023-01-23T12:53:31.185Z,85.39
2023-01-23T12:54:31.218Z,85.39
2023-01-23T12:55:31.233Z,85.49
2023-01-23T12:57:40.337Z,85.49
2023-01-23T12:58:31.314Z,85.39
2023-01-23T12:59:31.359Z,85.39
2023-01-23T13:00:31.466Z,85.49
2023-01-23T13:01:31.398Z,85.58
2023-01-23T13:03:44.913Z,84.91
2023-01-23T13:04:31.492Z,85.39
2023-01-23T13:05:31.639Z,85.58
2023-01-23T13:06:31.557Z,84.91
2023-01-23T13:07:31.594Z,85.58
2023-01-23T13:08:38.160Z,85.68
2023-01-23T13:09:31.625Z,85.68
2023-01-23T13:10:31.952Z,85.30
2023-01-23T13:12:31.707Z,84.91
2023-01-23T13:13:31.728Z,85.58
2023-01-23T13:14:47.484Z,84.82
2023-01-23T13:15:39.981Z,84.91
2023-01-23T13:16:31.875Z,85.39
2023-01-23T13:17:32.150Z,84.82
2023-01-23T13:18:31.870Z,85.11
2023-01-23T13:19:31.894Z,84.91
2023-01-23T13:20:32.058Z,84.91
2023-01-23T13:21:32.086Z,84.91
2023-01-23T13:22:32.780Z,84.91
2023-01-23T13:23:32.011Z,85.30
2023-01-23T13:24:32.035Z,84.53
2023-01-23T13:25:32.407Z,84.53
2023-01-23T13:27:32.264Z,85.01
2023-01-23T13:28:44.007Z,85.11
2023-01-23T13:29:32.172Z,85.11
2023-01-23T13:30:32.494Z,85.21
2023-01-23T13:31:32.286Z,85.01
2023-01-23T13:32:32.371Z,85.21
2023-01-23T13:33:32.287Z,85.01
2023-01-23T13:34:32.411Z,84.82
2023-01-23T13:35:32.343Z,84.72
2023-01-23T13:36:32.668Z,84.82